Time;durP1;ratioP1;P1;durP2;ratioP2;P2;SDS_P1;SDS_P2;PMS_P1;PMS_P2;Temp;Humidity;BMP_temperature;BMP_pressure;BME280_temperature;BME280_humidity;BME280_pressure;Samples;Min_cycle;Max_cycle;Signal;HPM_P1;HPM_P2
2022/03/20 00:02:23;;;;;;;;;22.25;16.25;;;;;;;;5081163;27;51100;-52
2022/03/20 00:05:08;;;;;;;;;20.75;12.50;;;;;;;;5081485;27;51364;-56
2022/03/20 00:07:52;;;;;;;;;25.25;15.50;;;;;;;;5081901;27;51157;-59
2022/03/20 00:10:37;;;;;;;;;33.50;16.00;;;;;;;;5084513;27;51196;-58
2022/03/20 00:13:22;;;;;;;;;31.50;16.00;;;;;;;;5083411;27;51163;-56
2022/03/20 00:16:07;;;;;;;;;26.50;15.25;;;;;;;;5079941;27;51022;-55
2022/03/20 00:18:51;;;;;;;;;19.25;13.25;;;;;;;;5088147;27;51431;-55
2022/03/20 00:21:35;;;;;;;;;32.00;15.25;;;;;;;;5080625;27;51144;-55
2022/03/20 00:24:20;;;;;;;;;24.50;16.00;;;;;;;;5083816;27;51756;-54
2022/03/20 00:27:05;;;;;;;;;21.75;11.75;;;;;;;;5082653;27;51338;-51
2022/03/20 00:29:50;;;;;;;;;28.75;16.75;;;;;;;;5088042;27;51632;-55
2022/03/20 00:32:35;;;;;;;;;23.25;12.75;;;;;;;;5082755;27;51088;-55
2022/03/20 00:35:19;;;;;;;;;22.50;16.50;;;;;;;;5082203;27;51537;-54
2022/03/20 00:38:05;;;;;;;;;28.00;14.50;;;;;;;;5079633;27;51212;-55
2022/03/20 00:40:49;;;;;;;;;22.25;15.25;;;;;;;;5083421;27;51715;-58
2022/03/20 00:43:33;;;;;;;;;17.50;13.50;;;;;;;;5093056;27;51388;-53
2022/03/20 00:46:18;;;;;;;;;21.00;15.00;;;;;;;;5082670;27;51154;-54
2022/03/20 00:49:02;;;;;;;;;26.50;18.50;;;;;;;;5081844;27;51115;-51
2022/03/20 00:51:47;;;;;;;;;22.25;15.50;;;;;;;;5083485;27;51152;-58
2022/03/20 00:54:31;;;;;;;;;27.25;15.50;;;;;;;;5082055;27;51092;-53
2022/03/20 00:57:16;;;;;;;;;23.50;15.00;;;;;;;;5079498;27;51166;-60
2022/03/20 01:00:00;;;;;;;;;23.25;14.50;;;;;;;;5082925;27;51413;-57
2022/03/20 01:02:45;;;;;;;;;26.25;15.25;;;;;;;;5078082;27;51330;-52
2022/03/20 01:05:29;;;;;;;;;21.00;16.00;;;;;;;;5081760;27;51127;-55
2022/03/20 01:08:17;;;;;;;;;27.00;15.00;;;;;;;;5078864;27;51532;-54
2022/03/20 01:11:02;;;;;;;;;19.50;14.25;;;;;;;;5083318;27;51124;-56
2022/03/20 01:13:46;;;;;;;;;20.75;15.50;;;;;;;;5079001;27;51101;-52
2022/03/20 01:16:31;;;;;;;;;24.00;14.50;;;;;;;;5081119;27;51147;-58
2022/03/20 01:19:15;;;;;;;;;27.50;14.75;;;;;;;;5079688;27;51686;-57
2022/03/20 01:22:00;;;;;;;;;25.25;16.00;;;;;;;;5083272;27;51131;-55
2022/03/20 01:24:45;;;;;;;;;18.75;12.00;;;;;;;;5079532;27;51491;-54
2022/03/20 01:27:29;;;;;;;;;20.25;16.25;;;;;;;;5078928;27;51084;-55
2022/03/20 01:30:13;;;;;;;;;24.25;15.25;;;;;;;;5079968;27;51215;-53
2022/03/20 01:32:58;;;;;;;;;24.50;14.50;;;;;;;;5078902;27;51324;-53
2022/03/20 01:35:43;;;;;;;;;25.50;16.75;;;;;;;;5079165;27;51121;-56
2022/03/20 01:38:27;;;;;;;;;20.00;12.75;;;;;;;;5079223;27;51164;-54
2022/03/20 01:41:11;;;;;;;;;26.75;14.00;;;;;;;;5079555;27;51178;-54
2022/03/20 01:43:56;;;;;;;;;26.50;16.75;;;;;;;;5078737;27;51446;-50
2022/03/20 01:46:41;;;;;;;;;15.50;14.50;;;;;;;;5078810;27;51066;-54
2022/03/20 01:49:26;;;;;;;;;21.00;14.25;;;;;;;;5081816;27;51289;-55
2022/03/20 01:52:10;;;;;;;;;19.25;11.00;;;;;;;;5079588;27;51050;-53
2022/03/20 01:54:54;;;;;;;;;23.00;12.25;;;;;;;;5079466;27;51131;-54
2022/03/20 01:57:39;;;;;;;;;19.75;13.50;;;;;;;;5089656;27;51120;-57
2022/03/20 02:00:25;;;;;;;;;13.50;11.25;;;;;;;;5079773;27;51139;-56
2022/03/20 02:03:09;;;;;;;;;18.25;12.50;;;;;;;;5081644;27;51121;-55
2022/03/20 02:05:55;;;;;;;;;15.75;12.50;;;;;;;;5080158;27;51077;-57
2022/03/20 02:08:39;;;;;;;;;23.25;16.00;;;;;;;;5079057;27;51087;-58
2022/03/20 02:11:27;;;;;;;;;26.50;16.25;;;;;;;;5090660;27;51078;-52
2022/03/20 02:14:11;;;;;;;;;21.25;14.25;;;;;;;;5082115;27;51130;-57
2022/03/20 02:16:56;;;;;;;;;23.00;12.75;;;;;;;;5095606;27;51182;-58
2022/03/20 02:19:41;;;;;;;;;22.50;15.00;;;;;;;;5082948;27;51104;-48
2022/03/20 02:22:26;;;;;;;;;24.75;14.50;;;;;;;;5080776;27;51090;-56
2022/03/20 02:25:12;;;;;;;;;21.00;13.75;;;;;;;;5090469;27;51513;-54
2022/03/20 02:27:56;;;;;;;;;16.50;13.75;;;;;;;;5099566;27;51150;-54
2022/03/20 02:30:41;;;;;;;;;19.75;14.00;;;;;;;;5090290;27;51139;-51
2022/03/20 02:33:27;;;;;;;;;25.50;15.75;;;;;;;;5082549;27;51179;-51
2022/03/20 02:36:11;;;;;;;;;27.25;15.50;;;;;;;;5087085;27;51136;-56
2022/03/20 02:38:56;;;;;;;;;36.75;16.25;;;;;;;;5090723;27;51075;-50
2022/03/20 02:41:41;;;;;;;;;20.00;12.25;;;;;;;;5085356;27;51189;-52
2022/03/20 02:44:44;;;;;;;;;21.50;15.75;;;;;;;;5083153;27;51176;-52
2022/03/20 02:47:29;;;;;;;;;19.50;12.25;;;;;;;;5102222;27;51107;-50
2022/03/20 02:50:17;;;;;;;;;20.25;11.75;;;;;;;;5082722;27;51409;-49
2022/03/20 02:53:02;;;;;;;;;14.75;8.25;;;;;;;;5093511;27;51195;-56
2022/03/20 02:55:47;;;;;;;;;22.75;16.25;;;;;;;;5093956;27;51102;-52
2022/03/20 02:58:31;;;;;;;;;29.75;17.75;;;;;;;;5102136;27;51163;-55
2022/03/20 03:01:17;;;;;;;;;26.25;16.25;;;;;;;;5087394;27;51161;-51
2022/03/20 03:04:01;;;;;;;;;27.00;12.75;;;;;;;;5090164;27;51104;-57
2022/03/20 03:06:45;;;;;;;;;23.75;14.25;;;;;;;;5088179;27;51084;-53
2022/03/20 03:12:33;;;;;;;;;23.25;14.00;;;;;;;;5082393;27;51207;-51
2022/03/20 03:15:20;;;;;;;;;24.75;16.00;;;;;;;;5087552;27;51449;-50
2022/03/20 03:18:05;;;;;;;;;25.00;17.00;;;;;;;;5099548;27;51102;-55
2022/03/20 03:20:49;;;;;;;;;31.25;16.00;;;;;;;;5085766;27;51172;-54
2022/03/20 03:23:36;;;;;;;;;22.25;13.75;;;;;;;;5089731;27;51417;-53
2022/03/20 03:26:20;;;;;;;;;30.25;16.25;;;;;;;;5081599;27;51115;-55
2022/03/20 03:29:05;;;;;;;;;22.25;18.50;;;;;;;;5087986;27;51647;-55
2022/03/20 03:31:49;;;;;;;;;27.50;17.00;;;;;;;;5082676;27;51035;-56
2022/03/20 03:37:37;;;;;;;;;21.25;13.75;;;;;;;;5081806;27;51040;-52
2022/03/20 03:40:22;;;;;;;;;27.50;18.50;;;;;;;;5081646;27;51439;-54
2022/03/20 03:43:07;;;;;;;;;21.25;15.75;;;;;;;;5081787;27;51086;-54
2022/03/20 03:45:53;;;;;;;;;24.75;13.00;;;;;;;;5093370;27;50958;-56
2022/03/20 03:48:37;;;;;;;;;22.75;17.25;;;;;;;;5101647;27;51414;-54
2022/03/20 03:51:21;;;;;;;;;20.50;13.75;;;;;;;;5085538;27;51096;-51
2022/03/20 03:54:06;;;;;;;;;25.25;17.75;;;;;;;;5100996;27;51406;-54
2022/03/20 03:56:50;;;;;;;;;24.50;15.75;;;;;;;;5084938;27;51171;-57
2022/03/20 03:59:35;;;;;;;;;29.25;19.00;;;;;;;;5100271;27;51178;-52
2022/03/20 04:02:20;;;;;;;;;26.75;15.25;;;;;;;;5081328;27;51124;-52
2022/03/20 04:05:04;;;;;;;;;24.50;14.25;;;;;;;;5081865;27;51451;-55
2022/03/20 04:07:49;;;;;;;;;25.25;15.50;;;;;;;;5098042;27;51222;-50
2022/03/20 04:10:33;;;;;;;;;16.75;14.25;;;;;;;;5084417;27;51269;-56
2022/03/20 04:13:18;;;;;;;;;23.50;17.00;;;;;;;;5085449;27;51135;-56
2022/03/20 04:16:02;;;;;;;;;28.25;14.75;;;;;;;;5081276;27;51054;-55
2022/03/20 04:18:46;;;;;;;;;25.50;15.25;;;;;;;;5097475;27;51097;-52
2022/03/20 04:21:31;;;;;;;;;23.00;15.75;;;;;;;;5084665;27;51211;-54
2022/03/20 04:24:15;;;;;;;;;21.25;16.00;;;;;;;;5092507;27;52551;-54
2022/03/20 04:27:00;;;;;;;;;15.50;14.00;;;;;;;;5088005;27;51139;-52
2022/03/20 04:29:44;;;;;;;;;21.75;15.25;;;;;;;;5080683;27;51101;-55
2022/03/20 04:32:30;;;;;;;;;21.00;14.00;;;;;;;;5087517;27;51087;-55
2022/03/20 04:35:15;;;;;;;;;22.00;14.00;;;;;;;;5091916;27;51412;-58
2022/03/20 04:37:59;;;;;;;;;25.00;16.75;;;;;;;;5096303;27;51278;-52
2022/03/20 04:40:43;;;;;;;;;22.00;12.75;;;;;;;;5085893;27;51141;-54
2022/03/20 04:43:28;;;;;;;;;27.75;16.75;;;;;;;;5095825;27;51490;-51
2022/03/20 04:46:12;;;;;;;;;20.50;15.25;;;;;;;;5083212;27;51271;-55
2022/03/20 05:01:08;;;;;;;;;22.75;15.00;;;;;;;;5082370;27;51086;-60
2022/03/20 05:03:52;;;;;;;;;22.50;15.00;;;;;;;;5086305;27;51765;-52
2022/03/20 05:06:36;;;;;;;;;22.00;12.75;;;;;;;;5082519;27;51181;-55
2022/03/20 05:15:27;;;;;;;;;26.75;14.75;;;;;;;;5079967;27;51407;-54
2022/03/20 05:18:12;;;;;;;;;19.25;12.75;;;;;;;;5091861;27;51037;-52
2022/03/20 05:20:57;;;;;;;;;21.25;14.25;;;;;;;;5090458;27;51140;-51
2022/03/20 05:23:41;;;;;;;;;20.75;14.25;;;;;;;;5100179;27;51087;-51
2022/03/20 05:26:28;;;;;;;;;23.50;16.00;;;;;;;;5094998;27;51033;-50
2022/03/20 05:29:12;;;;;;;;;22.00;13.25;;;;;;;;5081474;27;51422;-54
2022/03/20 05:31:57;;;;;;;;;20.50;15.50;;;;;;;;5096721;27;51027;-52
2022/03/20 05:34:41;;;;;;;;;29.00;14.25;;;;;;;;5097928;27;51190;-56
2022/03/20 05:37:26;;;;;;;;;25.50;17.00;;;;;;;;5079517;27;51077;-56
2022/03/20 05:40:10;;;;;;;;;27.50;14.50;;;;;;;;5079674;27;51348;-57
2022/03/20 05:42:54;;;;;;;;;28.50;15.00;;;;;;;;5082617;27;51113;-49
2022/03/20 05:45:40;;;;;;;;;21.25;14.00;;;;;;;;5092633;27;51053;-51
2022/03/20 05:48:24;;;;;;;;;25.75;15.50;;;;;;;;5078968;27;51195;-54
2022/03/20 05:51:09;;;;;;;;;19.25;14.25;;;;;;;;5083702;27;51116;-54
2022/03/20 05:53:53;;;;;;;;;22.00;11.75;;;;;;;;5091745;27;52105;-55
2022/03/20 05:59:40;;;;;;;;;23.00;15.50;;;;;;;;5095501;27;51389;-52
2022/03/20 06:02:25;;;;;;;;;20.25;12.50;;;;;;;;5079551;27;51052;-56
2022/03/20 06:05:10;;;;;;;;;19.75;14.50;;;;;;;;5087245;27;51179;-55
2022/03/20 06:07:54;;;;;;;;;22.00;15.25;;;;;;;;5079333;27;51035;-53
2022/03/20 06:10:38;;;;;;;;;21.75;13.50;;;;;;;;5091049;27;51077;-55
2022/03/20 06:13:23;;;;;;;;;39.00;19.75;;;;;;;;5093516;27;51118;-57
2022/03/20 06:16:08;;;;;;;;;24.25;17.50;;;;;;;;5083900;27;51082;-55
2022/03/20 06:18:53;;;;;;;;;28.25;16.25;;;;;;;;5093738;27;51052;-51
2022/03/20 06:21:38;;;;;;;;;19.50;16.75;;;;;;;;5085954;27;51005;-59
2022/03/20 06:24:22;;;;;;;;;21.00;16.50;;;;;;;;5083289;27;51097;-54
2022/03/20 06:27:06;;;;;;;;;32.25;17.75;;;;;;;;5099066;27;51076;-53
2022/03/20 06:31:58;;;;;;;;;15.00;15.00;;;;;;;;4355886;32;51138;-46
2022/03/20 06:34:42;;;;;;;;;24.25;17.75;;;;;;;;5093168;27;51166;-46
2022/03/20 06:37:27;;;;;;;;;28.75;19.00;;;;;;;;5104604;27;51482;-47
2022/03/20 06:40:12;;;;;;;;;24.50;16.00;;;;;;;;5113893;27;51124;-52
2022/03/20 06:42:56;;;;;;;;;26.75;19.25;;;;;;;;5096892;27;51415;-53
2022/03/20 06:45:41;;;;;;;;;34.00;16.25;;;;;;;;5097830;27;51079;-52
2022/03/20 06:48:25;;;;;;;;;16.00;9.00;;;;;;;;5100224;27;51206;-52
2022/03/20 06:51:10;;;;;;;;;25.00;18.00;;;;;;;;5112647;27;51273;-49
2022/03/20 06:53:56;;;;;;;;;19.25;13.00;;;;;;;;5117423;27;51456;-53
2022/03/20 06:56:40;;;;;;;;;16.25;11.50;;;;;;;;5096565;27;51144;-51
2022/03/20 06:59:25;;;;;;;;;16.25;15.50;;;;;;;;5106715;27;51099;-49
2022/03/20 07:02:09;;;;;;;;;22.75;14.25;;;;;;;;5096876;27;51435;-52
2022/03/20 07:04:54;;;;;;;;;24.75;16.00;;;;;;;;5116294;27;51400;-47
2022/03/20 07:07:40;;;;;;;;;24.75;17.75;;;;;;;;5105123;27;51053;-49
2022/03/20 07:10:24;;;;;;;;;28.50;21.75;;;;;;;;5095693;27;51152;-53
2022/03/20 07:16:14;;;;;;;;;20.75;18.25;;;;;;;;5096074;27;51013;-49
2022/03/20 07:18:59;;;;;;;;;28.75;16.25;;;;;;;;5096287;27;51427;-48
2022/03/20 07:21:43;;;;;;;;;29.00;22.00;;;;;;;;5096964;27;51140;-49
2022/03/20 07:24:28;;;;;;;;;33.75;19.50;;;;;;;;5095977;27;51324;-48
2022/03/20 07:30:15;;;;;;;;;28.00;18.50;;;;;;;;5105951;27;51060;-50
2022/03/20 07:33:00;;;;;;;;;29.00;18.25;;;;;;;;5103422;27;51346;-53
2022/03/20 07:35:44;;;;;;;;;26.50;15.50;;;;;;;;5116626;27;51137;-48
2022/03/20 07:38:28;;;;;;;;;27.75;17.00;;;;;;;;5099639;27;51070;-48
2022/03/20 07:41:13;;;;;;;;;23.75;16.50;;;;;;;;5093728;27;51520;-49
2022/03/20 07:43:57;;;;;;;;;27.50;18.25;;;;;;;;5102560;27;51104;-48
2022/03/20 07:46:43;;;;;;;;;10.50;1.00;;;;;;;;5102342;27;51044;-55
2022/03/20 07:49:28;;;;;;;;;18.50;12.00;;;;;;;;5100333;27;51031;-48
2022/03/20 07:52:12;;;;;;;;;16.75;6.50;;;;;;;;5089528;27;51123;-48
2022/03/20 07:54:57;;;;;;;;;21.25;17.25;;;;;;;;5082021;27;51144;-47
2022/03/20 07:57:41;;;;;;;;;20.50;18.00;;;;;;;;5102396;27;51152;-47
2022/03/20 08:00:26;;;;;;;;;16.25;14.25;;;;;;;;5102125;27;51143;-48
2022/03/20 08:03:10;;;;;;;;;22.25;12.50;;;;;;;;5092722;27;51068;-50
2022/03/20 08:05:57;;;;;;;;;23.50;14.50;;;;;;;;5100562;27;51137;-46
2022/03/20 08:08:42;;;;;;;;;25.25;15.00;;;;;;;;5092828;27;51399;-46
2022/03/20 08:11:27;;;;;;;;;19.00;13.25;;;;;;;;5081551;27;51136;-45
2022/03/20 08:14:12;;;;;;;;;21.50;16.50;;;;;;;;5081575;27;51097;-46
2022/03/20 08:16:56;;;;;;;;;29.75;17.25;;;;;;;;5100051;27;51466;-47
2022/03/20 08:19:40;;;;;;;;;28.00;14.00;;;;;;;;5085272;27;51544;-47
2022/03/20 08:22:28;;;;;;;;;27.25;18.25;;;;;;;;5100952;27;51547;-51
2022/03/20 08:25:12;;;;;;;;;34.00;19.75;;;;;;;;5101461;27;51153;-46
2022/03/20 08:27:56;;;;;;;;;28.00;17.00;;;;;;;;5102052;27;51200;-48
2022/03/20 08:30:41;;;;;;;;;25.75;16.75;;;;;;;;5083268;27;51003;-46
2022/03/20 08:33:27;;;;;;;;;31.00;20.00;;;;;;;;5101780;27;51266;-45
2022/03/20 08:36:12;;;;;;;;;28.25;19.50;;;;;;;;5095609;27;51065;-47
2022/03/20 08:38:56;;;;;;;;;36.75;18.25;;;;;;;;5082639;27;51112;-48
2022/03/20 08:41:43;;;;;;;;;25.50;20.00;;;;;;;;5099112;27;51463;-45
2022/03/20 08:44:28;;;;;;;;;26.00;18.25;;;;;;;;5100934;27;51087;-46
2022/03/20 08:47:12;;;;;;;;;10.75;4.00;;;;;;;;5094651;27;51373;-50
2022/03/20 08:49:57;;;;;;;;;25.25;17.75;;;;;;;;5086160;27;51273;-49
2022/03/20 08:52:46;;;;;;;;;27.00;19.50;;;;;;;;5085652;27;51161;-48
2022/03/20 08:55:33;;;;;;;;;25.00;17.50;;;;;;;;5100434;27;51472;-50
2022/03/20 08:58:17;;;;;;;;;22.75;16.75;;;;;;;;5099356;27;51551;-48
2022/03/20 09:01:01;;;;;;;;;25.50;17.50;;;;;;;;5100662;27;51137;-54
2022/03/20 09:03:49;;;;;;;;;19.50;13.00;;;;;;;;5081567;27;51049;-50
2022/03/20 09:06:34;;;;;;;;;25.25;17.50;;;;;;;;5080134;27;51501;-46
2022/03/20 09:09:18;;;;;;;;;29.25;22.75;;;;;;;;5089427;27;51221;-46
2022/03/20 09:12:03;;;;;;;;;36.00;18.50;;;;;;;;5080381;27;51191;-47
2022/03/20 09:14:47;;;;;;;;;28.25;17.75;;;;;;;;5091646;27;51202;-48
2022/03/20 09:20:35;;;;;;;;;21.00;14.00;;;;;;;;5086189;27;51435;-47
2022/03/20 09:23:19;;;;;;;;;21.00;13.75;;;;;;;;5081558;27;51422;-51
2022/03/20 09:26:03;;;;;;;;;23.75;17.00;;;;;;;;5099067;27;51073;-51
2022/03/20 09:28:47;;;;;;;;;30.25;18.25;;;;;;;;5093843;27;51886;-51
2022/03/20 09:31:34;;;;;;;;;23.75;14.25;;;;;;;;5079616;27;51407;-52
2022/03/20 09:34:18;;;;;;;;;22.75;14.25;;;;;;;;5084217;27;51180;-49
2022/03/20 09:37:03;;;;;;;;;21.75;15.25;;;;;;;;5080876;27;51526;-48
2022/03/20 09:39:47;;;;;;;;;15.25;11.75;;;;;;;;5093090;27;52421;-52
2022/03/20 09:42:34;;;;;;;;;0.00;0.00;;;;;;;;5100614;27;51099;-48
2022/03/20 09:45:18;;;;;;;;;26.50;14.50;;;;;;;;5083031;27;51498;-49
2022/03/20 09:48:07;;;;;;;;;27.25;13.25;;;;;;;;5079647;27;51566;-49
2022/03/20 09:50:51;;;;;;;;;26.75;15.50;;;;;;;;5081932;27;51116;-49
2022/03/20 09:53:35;;;;;;;;;23.25;15.50;;;;;;;;5098124;27;51241;-48
2022/03/20 09:56:20;;;;;;;;;23.50;14.00;;;;;;;;5094876;27;51482;-50
2022/03/20 09:59:04;;;;;;;;;23.00;14.25;;;;;;;;5093320;27;51134;-47
2022/03/20 10:01:49;;;;;;;;;20.75;12.50;;;;;;;;5096632;27;51191;-50
2022/03/20 10:04:53;;;;;;;;;17.25;11.50;;;;;;;;5083508;27;51141;-49
2022/03/20 10:07:40;;;;;;;;;27.25;16.00;;;;;;;;5079347;27;51062;-51
2022/03/20 10:10:29;;;;;;;;;19.00;13.25;;;;;;;;5083081;27;51065;-49
2022/03/20 10:13:14;;;;;;;;;21.00;14.00;;;;;;;;5079220;27;51448;-51
2022/03/20 10:15:58;;;;;;;;;25.50;15.75;;;;;;;;5078811;27;51049;-50
2022/03/20 10:18:42;;;;;;;;;24.00;15.00;;;;;;;;5078985;27;51119;-52
2022/03/20 10:21:44;;;;;;;;;18.75;12.50;;;;;;;;5088977;27;51492;-48
2022/03/20 10:24:30;;;;;;;;;15.00;9.50;;;;;;;;5080393;27;51146;-48
2022/03/20 10:27:14;;;;;;;;;20.50;15.00;;;;;;;;5079500;27;51450;-48
2022/03/20 10:30:00;;;;;;;;;18.00;14.75;;;;;;;;5080181;27;51088;-52
2022/03/20 10:32:48;;;;;;;;;22.25;10.00;;;;;;;;5079680;27;51044;-48
2022/03/20 10:35:33;;;;;;;;;27.00;14.75;;;;;;;;5091133;27;51258;-48
2022/03/20 10:38:33;;;;;;;;;22.25;16.50;;;;;;;;5079438;27;51340;-49
2022/03/20 10:41:18;;;;;;;;;23.50;13.75;;;;;;;;5099678;27;51081;-48
2022/03/20 10:44:10;;;;;;;;;18.50;14.75;;;;;;;;5090998;27;51167;-51
2022/03/20 10:47:10;;;;;;;;;25.00;13.50;;;;;;;;5089396;27;51042;-48
2022/03/20 10:50:07;;;;;;;;;23.50;14.25;;;;;;;;5099676;27;51095;-48
2022/03/20 10:53:07;;;;;;;;;22.25;14.00;;;;;;;;5099503;27;51535;-49
2022/03/20 10:56:04;;;;;;;;;22.25;14.50;;;;;;;;5090074;27;51506;-49
2022/03/20 10:58:49;;;;;;;;;27.25;16.75;;;;;;;;5079714;27;51361;-49
2022/03/20 11:01:34;;;;;;;;;26.25;17.25;;;;;;;;5082910;27;51007;-50
2022/03/20 11:07:51;;;;;;;;;20.75;13.25;;;;;;;;5012627;28;51242;-48
2022/03/20 11:10:55;;;;;;;;;25.00;14.00;;;;;;;;5019430;28;51551;-47
2022/03/20 11:13:46;;;;;;;;;19.75;13.00;;;;;;;;5016048;28;51539;-48
2022/03/20 11:16:37;;;;;;;;;21.75;13.75;;;;;;;;5016323;28;51161;-48
2022/03/20 11:19:23;;;;;;;;;28.75;17.00;;;;;;;;5020992;28;51398;-48
2022/03/20 11:22:34;;;;;;;;;23.25;13.00;;;;;;;;5039142;28;51200;-49
2022/03/20 11:25:24;;;;;;;;;23.00;15.75;;;;;;;;5032442;28;51187;-48
2022/03/20 11:28:31;;;;;;;;;25.50;17.75;;;;;;;;5039716;28;51361;-49
2022/03/20 11:33:49;;;;;;;;;15.00;12.25;;;;;;;;3854007;32;15462948;-46
2022/03/20 11:36:54;;;;;;;;;24.75;15.50;;;;;;;;5076709;28;51123;-46
2022/03/20 11:39:58;;;;;;;;;22.00;13.75;;;;;;;;5069759;27;51126;-52
2022/03/20 11:42:43;;;;;;;;;31.50;17.50;;;;;;;;5074207;28;51050;-51
2022/03/20 11:45:29;;;;;;;;;23.75;17.00;;;;;;;;5072264;28;51498;-48
2022/03/20 13:03:25;;;;;;;;;18.75;12.00;;;;;;;;3998687;32;10480353;-48
2022/03/20 13:06:11;;;;;;;;;20.75;15.50;;;;;;;;5058667;28;51211;-49
2022/03/20 13:09:09;;;;;;;;;21.00;12.25;;;;;;;;5077049;28;51158;-51
2022/03/20 13:11:59;;;;;;;;;28.00;15.25;;;;;;;;5062431;28;51084;-49
2022/03/20 13:14:49;;;;;;;;;19.50;14.50;;;;;;;;5069886;28;51166;-48
2022/03/20 13:17:36;;;;;;;;;27.25;14.50;;;;;;;;5048052;28;50994;-48
2022/03/20 13:20:21;;;;;;;;;24.50;15.25;;;;;;;;5061220;28;51131;-48
2022/03/20 13:23:09;;;;;;;;;32.00;13.00;;;;;;;;5061216;28;51080;-48
2022/03/20 13:26:05;;;;;;;;;15.25;14.00;;;;;;;;5050447;28;51348;-50
2022/03/20 13:28:59;;;;;;;;;20.75;14.25;;;;;;;;5064149;28;51092;-51
2022/03/20 13:32:04;;;;;;;;;21.25;10.25;;;;;;;;5071289;28;51404;-46
2022/03/20 13:34:51;;;;;;;;;23.50;13.75;;;;;;;;5076797;28;51210;-48
2022/03/20 13:37:35;;;;;;;;;25.00;12.25;;;;;;;;5076499;28;51026;-45
2022/03/20 13:40:29;;;;;;;;;25.00;14.25;;;;;;;;5076117;28;51211;-49
2022/03/20 13:43:21;;;;;;;;;18.75;12.75;;;;;;;;5074588;28;51376;-45
2022/03/20 13:46:20;;;;;;;;;17.50;11.50;;;;;;;;5076270;28;51032;-48
2022/03/20 13:49:10;;;;;;;;;16.25;13.00;;;;;;;;5076350;28;51155;-43
2022/03/20 13:51:59;;;;;;;;;16.25;11.75;;;;;;;;5070618;28;52087;-47
2022/03/20 13:55:07;;;;;;;;;18.00;12.75;;;;;;;;5076078;28;51080;-52
2022/03/20 13:58:00;;;;;;;;;21.00;12.75;;;;;;;;5052734;28;51479;-50
2022/03/20 14:00:51;;;;;;;;;19.25;13.25;;;;;;;;5057416;28;51133;-51
2022/03/20 14:03:40;;;;;;;;;21.50;15.25;;;;;;;;5060697;28;51047;-49
2022/03/20 14:06:35;;;;;;;;;25.25;14.00;;;;;;;;5057339;28;51177;-47
2022/03/20 14:09:45;;;;;;;;;16.25;10.50;;;;;;;;5055857;28;51135;-47
2022/03/20 14:12:32;;;;;;;;;20.50;11.00;;;;;;;;5054688;28;51061;-48
2022/03/20 14:15:16;;;;;;;;;21.50;12.75;;;;;;;;5042225;28;51109;-47
2022/03/20 14:18:08;;;;;;;;;16.50;12.75;;;;;;;;5041631;28;51100;-46
2022/03/20 14:21:06;;;;;;;;;32.00;15.25;;;;;;;;5060591;28;51179;-46
2022/03/20 14:24:19;;;;;;;;;18.75;13.25;;;;;;;;5061486;28;51052;-48
2022/03/20 14:27:05;;;;;;;;;19.25;12.50;;;;;;;;5022398;28;51232;-47
2022/03/20 14:39:49;;;;;;;;;18.50;13.00;;;;;;;;5061502;28;51412;-47
2022/03/20 14:42:38;;;;;;;;;17.00;11.00;;;;;;;;5061591;28;51126;-44
2022/03/20 14:45:27;;;;;;;;;19.50;10.75;;;;;;;;5061642;28;51162;-48
2022/03/20 14:48:12;;;;;;;;;20.00;13.75;;;;;;;;5061851;28;51146;-43
2022/03/20 14:51:00;;;;;;;;;19.25;12.75;;;;;;;;5061026;28;51438;-50
2022/03/20 14:53:49;;;;;;;;;20.50;14.25;;;;;;;;5029839;28;51141;-43
2022/03/20 14:56:40;;;;;;;;;22.25;13.75;;;;;;;;5061505;28;51400;-43
2022/03/20 14:59:26;;;;;;;;;26.25;16.50;;;;;;;;5061283;28;51068;-42
2022/03/20 15:02:11;;;;;;;;;27.50;15.75;;;;;;;;5069666;27;51089;-48
2022/03/20 15:04:55;;;;;;;;;28.50;17.50;;;;;;;;5081249;27;51540;-45
2022/03/20 15:11:23;;;;;;;;;17.50;13.75;;;;;;;;5081605;27;51376;-45
2022/03/20 15:11:24;;;;;;;;;18.25;12.75;;;;;;;;5067151;27;51988;-43
2022/03/20 15:14:09;;;;;;;;;23.75;16.50;;;;;;;;5072707;27;51164;-46
2022/03/20 15:16:54;;;;;;;;;23.50;13.25;;;;;;;;5060913;27;51363;-45
2022/03/20 15:20:00;;;;;;;;;35.75;25.00;;;;;;;;5060560;28;51118;-44
2022/03/20 15:22:46;;;;;;;;;33.50;24.75;;;;;;;;5060670;28;51578;-43
2022/03/20 15:25:31;;;;;;;;;30.50;20.00;;;;;;;;5059049;28;51119;-45
2022/03/20 15:28:16;;;;;;;;;19.75;16.50;;;;;;;;5060324;28;51053;-44
2022/03/20 15:31:03;;;;;;;;;22.75;15.25;;;;;;;;5065812;27;51151;-47
2022/03/20 15:33:48;;;;;;;;;24.25;16.00;;;;;;;;5059577;28;51450;-44
2022/03/20 15:36:35;;;;;;;;;22.25;16.75;;;;;;;;5063135;27;51061;-48
2022/03/20 15:39:22;;;;;;;;;28.75;13.50;;;;;;;;5060532;28;51156;-46
2022/03/20 15:42:08;;;;;;;;;24.25;11.25;;;;;;;;5059313;28;51445;-47
2022/03/20 15:44:55;;;;;;;;;20.00;15.00;;;;;;;;5060087;28;51114;-49
2022/03/20 15:47:47;;;;;;;;;27.25;17.50;;;;;;;;5060279;28;51347;-47
2022/03/20 15:50:38;;;;;;;;;19.25;11.75;;;;;;;;5078103;27;51148;-51
2022/03/20 15:53:28;;;;;;;;;20.50;14.50;;;;;;;;5069608;27;51124;-45
2022/03/20 15:56:15;;;;;;;;;22.25;14.00;;;;;;;;5059804;28;51050;-45
2022/03/20 15:59:05;;;;;;;;;25.75;15.50;;;;;;;;5077233;27;51478;-49
2022/03/20 16:01:54;;;;;;;;;13.25;12.00;;;;;;;;5045789;27;51157;-46
2022/03/20 16:04:38;;;;;;;;;19.50;14.50;;;;;;;;5079047;27;51151;-45
2022/03/20 16:07:24;;;;;;;;;30.50;14.00;;;;;;;;5059696;28;51428;-47
2022/03/20 16:10:09;;;;;;;;;22.75;15.25;;;;;;;;5059167;27;51113;-45
2022/03/20 16:12:58;;;;;;;;;24.75;17.00;;;;;;;;5060267;27;51119;-44
2022/03/20 16:15:43;;;;;;;;;24.75;14.50;;;;;;;;5076190;27;51124;-46
2022/03/20 16:18:31;;;;;;;;;22.25;14.50;;;;;;;;5063391;27;51077;-47
2022/03/20 16:21:35;;;;;;;;;24.25;15.00;;;;;;;;5061170;27;51105;-50
2022/03/20 16:30:34;;;;;;;;;24.75;15.75;;;;;;;;5070623;27;51068;-44
2022/03/20 16:33:41;;;;;;;;;31.75;16.75;;;;;;;;5060320;27;51540;-46
2022/03/20 16:36:39;;;;;;;;;28.25;20.25;;;;;;;;5058946;28;51165;-44
2022/03/20 16:39:24;;;;;;;;;22.00;19.25;;;;;;;;5059552;28;51415;-47
2022/03/20 16:42:09;;;;;;;;;30.75;21.75;;;;;;;;5058436;28;51113;-45
2022/03/20 16:45:04;;;;;;;;;23.75;14.00;;;;;;;;5063780;27;51186;-43
2022/03/20 16:48:01;;;;;;;;;26.00;15.00;;;;;;;;5058515;28;51109;-48
2022/03/20 16:51:32;;;;;;;;;29.75;19.75;;;;;;;;5058533;28;51197;-47
2022/03/20 16:54:32;;;;;;;;;17.00;14.50;;;;;;;;5059473;28;51204;-46
2022/03/20 16:57:19;;;;;;;;;27.00;17.75;;;;;;;;5059096;28;50999;-42
2022/03/20 17:00:10;;;;;;;;;34.25;16.75;;;;;;;;5064593;28;52299;-46
2022/03/20 17:02:56;;;;;;;;;15.50;5.25;;;;;;;;5078911;28;51151;-43
2022/03/20 17:05:40;;;;;;;;;35.00;24.25;;;;;;;;5062454;28;51549;-41
2022/03/20 17:08:34;;;;;;;;;27.75;18.50;;;;;;;;5058659;28;51538;-43
2022/03/20 17:11:22;;;;;;;;;26.25;15.25;;;;;;;;5075591;28;51170;-44
2022/03/20 17:14:09;;;;;;;;;29.50;19.00;;;;;;;;5067565;28;51079;-43
2022/03/20 17:16:54;;;;;;;;;30.75;20.75;;;;;;;;5058448;28;51555;-45
2022/03/20 17:19:52;;;;;;;;;33.50;18.25;;;;;;;;5058502;28;51129;-49
2022/03/20 17:22:48;;;;;;;;;29.25;17.75;;;;;;;;5057362;28;51079;-41
2022/03/20 17:25:37;;;;;;;;;35.75;18.25;;;;;;;;5059394;28;51344;-44
2022/03/20 17:28:23;;;;;;;;;21.75;16.75;;;;;;;;5077157;28;51060;-45
2022/03/20 17:31:27;;;;;;;;;23.50;17.25;;;;;;;;5058890;28;51485;-43
2022/03/20 17:34:12;;;;;;;;;21.75;15.25;;;;;;;;5071714;28;51223;-43
2022/03/20 17:37:01;;;;;;;;;27.50;18.25;;;;;;;;5079032;28;51141;-44
2022/03/20 17:39:46;;;;;;;;;32.00;19.00;;;;;;;;5078654;28;51074;-46
2022/03/20 17:42:34;;;;;;;;;30.25;19.25;;;;;;;;5057359;28;51638;-43
2022/03/20 17:45:21;;;;;;;;;28.75;23.25;;;;;;;;5058671;28;51141;-45
2022/03/20 17:48:09;;;;;;;;;19.50;12.50;;;;;;;;5058561;28;51535;-42
2022/03/20 17:51:08;;;;;;;;;15.25;9.25;;;;;;;;5065205;27;51218;-41
2022/03/20 17:53:52;;;;;;;;;32.75;16.50;;;;;;;;5061814;28;51019;-41
2022/03/20 17:56:46;;;;;;;;;22.25;15.25;;;;;;;;5062194;28;51628;-41
2022/03/20 17:59:38;;;;;;;;;20.50;13.50;;;;;;;;5075521;27;51021;-46
2022/03/20 18:08:31;;;;;;;;;25.75;16.50;;;;;;;;5070464;27;51432;-43
2022/03/20 18:11:28;;;;;;;;;31.00;18.50;;;;;;;;5061824;28;51194;-39
2022/03/20 18:14:15;;;;;;;;;27.25;18.50;;;;;;;;5124560;22;51763;-47
2022/03/20 18:17:09;;;;;;;;;24.75;15.75;;;;;;;;5038215;28;51140;-49
2022/03/20 18:19:53;;;;;;;;;28.75;18.25;;;;;;;;5040977;28;51038;-48
2022/03/20 18:22:49;;;;;;;;;23.50;15.50;;;;;;;;5041777;28;51605;-46
2022/03/20 18:25:34;;;;;;;;;22.75;15.25;;;;;;;;5039229;28;51069;-46
2022/03/20 18:28:18;;;;;;;;;21.00;14.75;;;;;;;;5039700;28;51171;-48
2022/03/20 18:31:03;;;;;;;;;20.75;16.00;;;;;;;;5039700;28;51148;-46
2022/03/20 18:33:48;;;;;;;;;24.00;15.75;;;;;;;;5039393;28;51198;-49
2022/03/20 18:36:32;;;;;;;;;25.00;17.25;;;;;;;;5025282;28;52038;-46